createdAt,value
2018-04-26T00:00:19.577Z,11.20
2018-04-26T00:02:53.294Z,11.20
2018-04-26T00:05:27.413Z,11.30
2018-04-26T00:08:01.954Z,11.30
2018-04-26T00:10:36.080Z,11.30
2018-04-26T00:13:09.983Z,11.30
2018-04-26T00:15:43.773Z,11.30
2018-04-26T00:18:18.807Z,11.10
2018-04-26T00:20:52.849Z,11.10
2018-04-26T00:23:26.948Z,11.00
2018-04-26T00:26:00.862Z,10.80
2018-04-26T00:28:35.866Z,10.90
2018-04-26T00:31:10.556Z,10.90
2018-04-26T00:33:44.743Z,10.90
2018-04-26T00:36:19.883Z,10.90
2018-04-26T00:38:54.133Z,10.80
2018-04-26T00:41:27.961Z,10.90
2018-04-26T00:44:02.598Z,10.80
2018-04-26T00:46:36.407Z,10.80
2018-04-26T00:49:10.190Z,10.90
2018-04-26T00:51:56.581Z,10.80
2018-04-26T00:54:31.131Z,10.70
2018-04-26T00:57:05.128Z,10.80
2018-04-26T00:59:38.845Z,10.80
2018-04-26T01:02:12.656Z,10.80
2018-04-26T01:04:46.754Z,10.80
2018-04-26T01:07:21.757Z,10.70
2018-04-26T01:09:56.503Z,10.80
2018-04-26T01:12:31.251Z,10.80
2018-04-26T01:15:05.998Z,10.80
2018-04-26T01:17:40.799Z,10.90
2018-04-26T01:20:14.491Z,10.90
2018-04-26T01:22:48.340Z,10.90
2018-04-26T01:25:22.722Z,10.80
2018-04-26T01:27:57.460Z,10.70
2018-04-26T01:30:32.243Z,10.80
2018-04-26T01:33:06.787Z,10.80
2018-04-26T01:35:41.275Z,10.90
2018-04-26T01:38:15.972Z,10.80
2018-04-26T01:40:49.982Z,10.80
2018-04-26T01:43:23.645Z,10.80
2018-04-26T01:45:57.784Z,10.70
2018-04-26T01:48:32.188Z,10.70
2018-04-26T01:51:05.939Z,10.60
2018-04-26T01:53:40.308Z,10.60
2018-04-26T01:56:14.334Z,10.60
2018-04-26T01:58:48.322Z,10.70
2018-04-26T02:01:23.041Z,10.60
2018-04-26T02:03:57.181Z,10.60
2018-04-26T02:06:30.972Z,10.60
2018-04-26T02:09:05.588Z,10.50
2018-04-26T02:11:39.524Z,10.50
2018-04-26T02:14:14.020Z,10.50
2018-04-26T02:16:47.961Z,10.50
2018-04-26T02:19:22.442Z,10.50
2018-04-26T02:21:56.372Z,10.50
2018-04-26T02:24:30.891Z,10.40
2018-04-26T02:27:05.277Z,10.40
2018-04-26T02:29:39.695Z,10.40
2018-04-26T02:32:14.704Z,10.40
2018-04-26T02:34:49.282Z,10.40
2018-04-26T02:37:23.697Z,10.30
2018-04-26T02:39:58.926Z,10.30
2018-04-26T02:42:33.541Z,10.20
2018-04-26T02:45:07.679Z,10.20
2018-04-26T02:47:41.671Z,10.10
2018-04-26T02:50:16.685Z,10.00
2018-04-26T02:52:50.314Z,10.00
2018-04-26T02:55:24.309Z,9.90
2018-04-26T02:57:58.045Z,9.90
2018-04-26T03:00:32.630Z,9.90
2018-04-26T03:03:06.859Z,9.90
2018-04-26T03:05:41.031Z,9.80
2018-04-26T03:08:14.589Z,9.80
2018-04-26T03:10:49.195Z,9.80
2018-04-26T03:13:22.888Z,9.80
2018-04-26T03:15:56.838Z,9.80
2018-04-26T03:18:31.667Z,9.80
2018-04-26T03:21:06.055Z,9.80
2018-04-26T03:23:40.137Z,9.80
2018-04-26T03:26:13.933Z,9.80
2018-04-26T03:28:48.447Z,9.80
2018-04-26T03:31:21.992Z,9.80
2018-04-26T03:33:56.059Z,9.80
2018-04-26T03:36:30.391Z,9.80
2018-04-26T03:39:05.822Z,9.90
2018-04-26T03:41:40.177Z,9.90
2018-04-26T03:44:14.236Z,9.90
2018-04-26T03:46:49.142Z,9.90
2018-04-26T03:49:23.235Z,9.90
2018-04-26T03:51:57.754Z,9.90
2018-04-26T03:54:32.768Z,10.00
2018-04-26T03:57:07.386Z,10.00
2018-04-26T03:59:53.576Z,10.00
2018-04-26T04:02:40.133Z,10.00
2018-04-26T04:18:40.729Z,9.90
2018-04-26T04:21:15.400Z,10.00
2018-04-26T04:23:49.338Z,9.90
2018-04-26T04:26:23.529Z,9.90
2018-04-26T04:28:58.277Z,9.90
2018-04-26T04:31:33.415Z,9.90
2018-04-26T04:34:07.332Z,9.90
2018-04-26T04:36:42.671Z,9.90
2018-04-26T04:39:17.098Z,9.80
2018-04-26T04:41:50.951Z,9.90
2018-04-26T04:44:24.976Z,9.90
2018-04-26T04:46:58.756Z,9.90
2018-04-26T04:49:33.529Z,9.90
2018-04-26T04:52:07.107Z,9.80
2018-04-26T04:54:42.256Z,9.80
2018-04-26T04:57:16.785Z,9.80
2018-04-26T04:59:52.214Z,9.80
2018-04-26T05:02:26.962Z,9.80
2018-04-26T05:05:01.719Z,9.80
2018-04-26T05:07:36.023Z,9.90
2018-04-26T05:10:11.075Z,9.80
2018-04-26T05:12:45.756Z,9.80
2018-04-26T05:15:20.354Z,9.90
2018-04-26T05:17:54.815Z,10.00
2018-04-26T05:20:29.244Z,10.10
2018-04-26T05:23:03.142Z,10.10
2018-04-26T05:25:36.996Z,10.00
2018-04-26T05:28:11.146Z,10.00
2018-04-26T05:30:44.860Z,10.00
2018-04-26T05:33:20.253Z,10.00
2018-04-26T05:35:55.468Z,10.00
2018-04-26T05:38:29.931Z,9.90
2018-04-26T05:41:04.677Z,9.90
2018-04-26T05:43:38.564Z,9.90
2018-04-26T05:46:13.220Z,9.90
2018-04-26T05:48:46.993Z,9.80
2018-04-26T05:51:21.556Z,9.90
2018-04-26T05:53:55.329Z,9.80
2018-04-26T05:56:28.936Z,9.90
2018-04-26T05:59:06.523Z,10.00
2018-04-26T06:01:41.051Z,10.10
2018-04-26T06:04:14.772Z,10.00
2018-04-26T06:06:48.591Z,10.10
2018-04-26T06:09:22.257Z,10.20
2018-04-26T06:11:56.074Z,10.20
2018-04-26T06:14:30.772Z,10.30
2018-04-26T06:17:05.297Z,10.30
2018-04-26T06:19:40.046Z,10.30
2018-04-26T06:22:14.696Z,10.40
2018-04-26T06:24:48.261Z,10.30
2018-04-26T06:27:23.009Z,10.60
2018-04-26T06:29:57.880Z,10.70
2018-04-26T06:32:32.518Z,10.80
2018-04-26T06:35:06.367Z,10.80
2018-04-26T06:37:41.062Z,10.80
2018-04-26T06:40:14.884Z,10.80
2018-04-26T06:42:48.821Z,10.80
2018-04-26T06:45:23.318Z,11.10
2018-04-26T06:47:57.103Z,11.10
2018-04-26T06:50:31.828Z,11.40
2018-04-26T06:53:06.268Z,11.40
2018-04-26T06:55:40.261Z,11.40
2018-04-26T06:58:14.094Z,11.40
2018-04-26T07:00:49.403Z,11.50
2018-04-26T07:03:23.870Z,11.60
2018-04-26T07:05:58.331Z,11.70
2018-04-26T07:08:32.887Z,11.80
2018-04-26T07:11:07.295Z,11.70
2018-04-26T07:13:41.378Z,11.70
2018-04-26T07:16:15.907Z,11.70
2018-04-26T07:18:50.106Z,11.60
2018-04-26T07:21:24.680Z,11.50
2018-04-26T07:23:58.671Z,11.40
2018-04-26T07:26:33.087Z,11.30
2018-04-26T07:29:06.934Z,11.40
2018-04-26T07:31:41.766Z,11.30
2018-04-26T07:34:15.670Z,11.30
2018-04-26T07:36:50.154Z,11.30
2018-04-26T07:39:24.744Z,11.30
2018-04-26T07:41:59.612Z,11.30
2018-04-26T07:44:33.266Z,11.30
2018-04-26T07:47:07.851Z,11.40
2018-04-26T07:49:42.611Z,11.50
2018-04-26T07:52:16.603Z,11.50
2018-04-26T07:54:50.415Z,11.50
2018-04-26T07:57:24.201Z,11.40
2018-04-26T07:59:58.739Z,11.30
2018-04-26T08:02:33.142Z,11.40
2018-04-26T08:05:07.117Z,11.40
2018-04-26T08:07:41.799Z,11.50
2018-04-26T08:10:16.040Z,11.50
2018-04-26T08:12:50.757Z,11.50
2018-04-26T08:15:25.194Z,11.50
2018-04-26T08:17:59.692Z,11.50
2018-04-26T08:20:34.148Z,11.50
2018-04-26T08:23:08.760Z,11.70
2018-04-26T08:25:43.490Z,11.60
2018-04-26T08:28:17.098Z,11.50
2018-04-26T08:30:51.013Z,11.60
2018-04-26T08:33:25.508Z,11.70
2018-04-26T08:36:00.294Z,11.90
2018-04-26T08:38:34.584Z,12.00
2018-04-26T08:41:09.378Z,12.10
2018-04-26T08:43:43.983Z,12.20
2018-04-26T08:46:17.937Z,12.20
2018-04-26T08:48:51.811Z,12.10
2018-04-26T08:51:27.058Z,12.00
2018-04-26T08:54:01.673Z,11.80
2018-04-26T08:56:35.643Z,11.70
2018-04-26T08:59:09.992Z,11.90
2018-04-26T09:01:43.735Z,12.10
2018-04-26T09:04:17.613Z,12.20
2018-04-26T09:06:52.828Z,12.30
2018-04-26T09:09:27.705Z,12.50
2018-04-26T09:12:01.638Z,12.50
2018-04-26T09:14:35.419Z,12.60
2018-04-26T09:17:10.375Z,12.50
2018-04-26T09:19:44.849Z,12.50
2018-04-26T09:22:19.473Z,12.70
2018-04-26T09:24:53.480Z,12.70
2018-04-26T09:27:28.332Z,12.80
2018-04-26T09:30:02.559Z,12.80
2018-04-26T09:32:36.697Z,12.80
2018-04-26T09:35:10.832Z,12.70
2018-04-26T09:37:44.956Z,12.70
2018-04-26T09:40:19.787Z,12.10
2018-04-26T09:42:54.812Z,12.30
2018-04-26T09:45:29.394Z,12.00
2018-04-26T09:48:03.278Z,12.00
2018-04-26T09:50:37.059Z,12.20
2018-04-26T09:53:12.076Z,12.20
2018-04-26T09:55:46.623Z,12.00
2018-04-26T09:58:22.059Z,11.70
2018-04-26T10:00:56.359Z,11.70
2018-04-26T10:03:30.176Z,11.60
2018-04-26T10:06:04.830Z,11.80
2018-04-26T10:08:39.720Z,11.80
2018-04-26T10:11:13.183Z,11.80
2018-04-26T10:13:46.754Z,11.70
2018-04-26T10:16:21.006Z,11.90
2018-04-26T10:18:54.694Z,12.30
2018-04-26T10:21:29.855Z,13.30
2018-04-26T10:24:03.686Z,13.30
2018-04-26T10:26:37.723Z,13.30
2018-04-26T10:29:12.165Z,12.90
2018-04-26T10:31:45.997Z,12.90
2018-04-26T10:34:19.819Z,13.40
2018-04-26T10:36:53.342Z,13.50
2018-04-26T10:39:27.869Z,13.60
2018-04-26T10:42:02.596Z,13.30
2018-04-26T10:44:36.685Z,13.30
2018-04-26T10:47:11.016Z,13.60
2018-04-26T10:49:45.013Z,13.60
2018-04-26T10:52:19.527Z,13.00
2018-04-26T10:54:53.958Z,12.90
2018-04-26T10:57:29.162Z,12.80
2018-04-26T11:00:03.058Z,13.00
2018-04-26T11:02:37.126Z,13.20
2018-04-26T11:05:12.127Z,14.20
2018-04-26T11:07:45.656Z,14.40
2018-04-26T11:10:20.967Z,14.40
2018-04-26T11:12:57.251Z,14.70
2018-04-26T11:15:32.234Z,14.80
2018-04-26T11:18:06.779Z,14.80
2018-04-26T11:20:40.612Z,14.80
2018-04-26T11:23:14.404Z,14.70
2018-04-26T11:25:49.178Z,14.80
2018-04-26T11:28:23.238Z,14.80
2018-04-26T11:30:58.825Z,15.70
2018-04-26T11:33:32.685Z,15.70
2018-04-26T11:36:06.383Z,15.80
2018-04-26T11:38:40.316Z,15.70
2018-04-26T11:41:14.419Z,15.60
2018-04-26T11:43:48.615Z,16.10
2018-04-26T11:46:22.423Z,16.20
2018-04-26T11:48:56.944Z,16.30
2018-04-26T11:51:31.480Z,15.90
2018-04-26T11:54:05.573Z,15.90
2018-04-26T11:56:40.214Z,16.20
2018-04-26T11:59:14.731Z,15.20
2018-04-26T12:01:50.183Z,15.20
2018-04-26T12:04:24.889Z,14.90
2018-04-26T12:06:59.510Z,14.70
2018-04-26T12:09:33.285Z,14.60
2018-04-26T12:12:07.116Z,14.70
2018-04-26T12:14:40.739Z,14.80
2018-04-26T12:17:15.243Z,15.00
2018-04-26T12:19:50.476Z,15.30
2018-04-26T12:22:23.988Z,15.30
2018-04-26T12:24:58.403Z,16.20
2018-04-26T12:27:31.921Z,16.20
2018-04-26T12:30:05.524Z,17.10
2018-04-26T12:32:39.978Z,17.40
2018-04-26T12:35:14.276Z,17.00
2018-04-26T12:37:48.079Z,17.00
2018-04-26T12:40:22.330Z,17.10
2018-04-26T12:42:56.591Z,17.20
2018-04-26T12:45:30.186Z,17.10
2018-04-26T12:48:03.872Z,17.90
2018-04-26T12:50:37.476Z,18.50
2018-04-26T12:53:11.776Z,17.70
2018-04-26T12:55:46.165Z,17.00
2018-04-26T12:58:20.009Z,16.90
2018-04-26T13:00:54.459Z,16.60
2018-04-26T13:03:28.901Z,16.40
2018-04-26T13:06:03.190Z,15.40
2018-04-26T13:08:36.727Z,15.40
2018-04-26T13:11:11.071Z,15.20
2018-04-26T13:13:45.433Z,15.40
2018-04-26T13:16:18.960Z,15.40
2018-04-26T13:18:52.482Z,15.80
2018-04-26T13:21:26.825Z,18.20
2018-04-26T13:24:00.360Z,18.20
2018-04-26T13:26:34.090Z,17.40
2018-04-26T13:29:08.539Z,16.40
2018-04-26T13:31:42.949Z,15.80
2018-04-26T13:34:17.361Z,15.80
2018-04-26T13:36:51.588Z,15.80
2018-04-26T13:39:25.076Z,15.80
2018-04-26T13:41:58.717Z,15.60
2018-04-26T13:44:32.335Z,15.10
2018-04-26T13:47:05.839Z,15.30
2018-04-26T13:49:40.114Z,16.30
2018-04-26T13:52:14.478Z,17.60
2018-04-26T13:54:48.952Z,18.70
2018-04-26T13:57:23.307Z,17.80
2018-04-26T13:59:57.765Z,18.40
2018-04-26T14:02:31.393Z,18.40
2018-04-26T14:05:05.963Z,16.60
2018-04-26T14:07:39.634Z,16.60
2018-04-26T14:10:13.165Z,15.60
2018-04-26T14:12:47.384Z,16.10
2018-04-26T14:15:21.624Z,16.00
2018-04-26T14:17:56.335Z,16.60
2018-04-26T14:20:30.172Z,16.50
2018-04-26T14:23:03.853Z,17.20
2018-04-26T14:25:37.600Z,16.50
2018-04-26T14:28:11.958Z,16.40
2018-04-26T14:30:46.796Z,16.50
2018-04-26T14:33:20.493Z,16.50
2018-04-26T14:35:55.134Z,16.40
2018-04-26T14:38:29.606Z,16.00
2018-04-26T14:41:04.899Z,16.10
2018-04-26T14:43:38.573Z,16.10
2018-04-26T14:46:13.294Z,17.20
2018-04-26T14:48:48.336Z,17.20
2018-04-26T14:51:22.237Z,19.10
2018-04-26T14:53:57.052Z,20.10
2018-04-26T14:56:30.665Z,20.00
2018-04-26T14:59:05.376Z,18.10
2018-04-26T15:01:39.518Z,18.10
2018-04-26T15:04:13.169Z,16.70
2018-04-26T15:06:47.422Z,15.90
2018-04-26T15:09:21.209Z,17.40
2018-04-26T15:11:55.732Z,20.90
2018-04-26T15:14:29.506Z,20.80
2018-04-26T15:17:04.174Z,19.40
2018-04-26T15:19:39.246Z,17.40
2018-04-26T15:22:14.516Z,16.70
2018-04-26T15:24:49.968Z,17.20
2018-04-26T15:27:24.590Z,17.50
2018-04-26T15:29:59.445Z,17.00
2018-04-26T15:32:34.164Z,16.50
2018-04-26T15:35:09.145Z,16.60
2018-04-26T15:37:43.909Z,18.60
2018-04-26T15:40:17.712Z,18.60
2018-04-26T15:42:52.195Z,20.50
2018-04-26T15:45:26.629Z,20.30
2018-04-26T15:48:00.365Z,20.30
2018-04-26T16:04:16.171Z,17.70
2018-04-26T16:07:03.460Z,17.40
2018-04-26T16:23:28.407Z,23.60
2018-04-26T16:26:15.153Z,23.00
2018-04-26T16:29:07.306Z,22.90
2018-04-26T16:31:59.466Z,21.00
2018-04-26T16:34:46.774Z,21.00
2018-04-26T16:37:38.888Z,21.00
2018-04-26T16:40:13.278Z,20.70
2018-04-26T16:42:48.524Z,18.90
2018-04-26T16:45:22.424Z,18.90
2018-04-26T16:47:56.770Z,16.70
2018-04-26T16:50:30.907Z,16.60
2018-04-26T16:53:05.482Z,15.70
2018-04-26T16:55:39.688Z,15.60
2018-04-26T16:58:14.109Z,16.50
2018-04-26T17:00:49.223Z,17.00
2018-04-26T17:03:24.175Z,17.40
2018-04-26T17:05:57.987Z,17.40
2018-04-26T17:08:32.623Z,18.40
2018-04-26T17:11:07.449Z,18.10
2018-04-26T17:13:42.291Z,18.10
2018-04-26T17:16:16.988Z,17.40
2018-04-26T17:18:51.710Z,17.90
2018-04-26T17:21:26.335Z,17.70
2018-04-26T17:24:00.560Z,17.70
2018-04-26T17:26:34.382Z,17.20
2018-04-26T17:29:08.594Z,16.70
2018-04-26T17:31:43.084Z,17.00
2018-04-26T17:34:19.151Z,16.60
2018-04-26T17:36:53.501Z,16.20
2018-04-26T17:39:28.005Z,16.10
2018-04-26T17:42:02.502Z,16.10
2018-04-26T17:44:36.536Z,15.50
2018-04-26T17:47:10.313Z,15.20
2018-04-26T17:49:44.848Z,14.30
2018-04-26T17:52:19.568Z,14.00
2018-04-26T17:54:54.565Z,14.00
2018-04-26T17:57:29.348Z,14.10
2018-04-26T18:00:11.550Z,14.00
2018-04-26T18:02:58.438Z,14.10
2018-04-26T18:05:32.949Z,14.20
2018-04-26T18:08:06.665Z,14.20
2018-04-26T18:10:41.584Z,14.20
2018-04-26T18:13:17.591Z,14.00
2018-04-26T18:15:52.093Z,13.70
2018-04-26T18:18:26.507Z,13.60
2018-04-26T18:21:01.338Z,13.50
2018-04-26T18:23:35.135Z,13.40
2018-04-26T18:26:09.623Z,13.30
2018-04-26T18:28:43.875Z,13.20
2018-04-26T18:31:18.954Z,13.20
2018-04-26T18:33:53.719Z,13.10
2018-04-26T18:36:29.079Z,12.90
2018-04-26T18:39:03.392Z,12.90
2018-04-26T18:41:37.698Z,12.90
2018-04-26T18:44:12.199Z,12.80
2018-04-26T18:46:46.096Z,12.60
2018-04-26T18:49:20.671Z,12.50
2018-04-26T18:51:55.588Z,12.30
2018-04-26T18:54:29.990Z,12.40
2018-04-26T18:57:03.906Z,12.30
2018-04-26T18:59:38.530Z,12.20
2018-04-26T19:02:13.264Z,12.20
2018-04-26T19:04:47.432Z,12.10
2018-04-26T19:07:21.876Z,12.00
2018-04-26T19:09:55.599Z,11.90
2018-04-26T19:12:30.222Z,11.90
2018-04-26T19:15:04.849Z,11.60
2018-04-26T19:17:39.827Z,11.60
2018-04-26T19:20:14.490Z,11.10
2018-04-26T19:22:48.901Z,11.10
2018-04-26T19:25:23.420Z,10.90
2018-04-26T19:27:57.755Z,10.80
2018-04-26T19:30:32.455Z,10.60
2018-04-26T19:33:07.522Z,10.50
2018-04-26T19:35:41.330Z,10.50
2018-04-26T19:38:16.344Z,10.40
2018-04-26T19:40:50.547Z,10.40
2018-04-26T19:43:25.831Z,10.30
2018-04-26T19:46:00.729Z,10.30
2018-04-26T19:48:35.149Z,10.20
2018-04-26T19:51:10.070Z,10.20
2018-04-26T19:53:44.803Z,10.20
2018-04-26T19:56:20.046Z,10.20
2018-04-26T19:58:54.043Z,10.20
2018-04-26T20:01:29.490Z,10.20
2018-04-26T20:04:04.115Z,10.20
2018-04-26T20:06:40.586Z,10.10
2018-04-26T20:09:15.211Z,10.10
2018-04-26T20:11:51.760Z,10.10
2018-04-26T20:14:27.850Z,10.10
2018-04-26T20:17:03.288Z,10.10
2018-04-26T20:19:38.137Z,10.00
2018-04-26T20:22:13.683Z,10.00
2018-04-26T20:24:50.578Z,9.80
2018-04-26T20:27:24.845Z,9.80
2018-04-26T20:30:00.086Z,9.70
2018-04-26T20:32:34.807Z,9.60
2018-04-26T20:35:10.959Z,9.50
2018-04-26T20:37:45.490Z,9.50
2018-04-26T20:40:20.637Z,9.80
2018-04-26T20:42:54.325Z,9.70
2018-04-26T20:45:30.173Z,9.70
2018-04-26T20:48:04.802Z,9.70
2018-04-26T20:50:40.236Z,9.70
2018-04-26T20:53:15.093Z,9.60
2018-04-26T20:55:50.435Z,9.60
2018-04-26T20:58:24.213Z,9.60
2018-04-26T21:00:59.353Z,9.30
2018-04-26T21:03:34.076Z,9.20
2018-04-26T21:06:10.573Z,9.00
2018-04-26T21:08:45.088Z,8.90
2018-04-26T21:11:19.998Z,8.80
2018-04-26T21:13:53.806Z,8.80
2018-04-26T21:16:30.495Z,8.70
2018-04-26T21:19:05.613Z,8.50
2018-04-26T21:21:40.849Z,8.50
2018-04-26T21:24:14.537Z,8.50
2018-04-26T21:26:49.997Z,8.00
2018-04-26T21:29:24.523Z,7.80
2018-04-26T21:32:00.581Z,7.80
2018-04-26T21:34:34.683Z,7.80
2018-04-26T21:37:12.590Z,7.80
2018-04-26T21:39:48.751Z,7.50
2018-04-26T21:42:24.085Z,7.40
2018-04-26T21:45:01.592Z,7.40
2018-04-26T21:47:35.288Z,7.40
2018-04-26T21:50:18.006Z,7.30
2018-04-26T21:53:00.007Z,7.40
2018-04-26T21:55:40.453Z,7.20
2018-04-26T21:58:20.707Z,7.00
2018-04-26T22:01:00.452Z,6.90
2018-04-26T22:03:39.882Z,6.90
2018-04-26T22:06:13.896Z,6.90
2018-04-26T22:08:51.409Z,6.90
2018-04-26T22:11:25.290Z,6.90
2018-04-26T22:14:00.436Z,6.80
2018-04-26T22:16:34.344Z,6.80
2018-04-26T22:19:12.538Z,6.70
2018-04-26T22:21:46.777Z,6.70
2018-04-26T22:24:21.387Z,6.60
2018-04-26T22:26:56.506Z,6.40
2018-04-26T22:29:31.138Z,6.40
2018-04-26T22:32:04.850Z,6.30
2018-04-26T22:34:42.523Z,6.10
2018-04-26T22:37:19.624Z,6.10
2018-04-26T22:39:54.347Z,6.40
2018-04-26T22:42:29.685Z,6.30
2018-04-26T22:45:04.113Z,6.10
2018-04-26T22:47:38.627Z,6.00
2018-04-26T22:50:14.383Z,5.90
2018-04-26T22:52:50.939Z,5.90
2018-04-26T22:55:25.469Z,5.80
2018-04-26T22:58:02.029Z,5.80
2018-04-26T23:00:37.168Z,5.60
2018-04-26T23:03:11.494Z,5.50
2018-04-26T23:05:46.118Z,5.50
2018-04-26T23:08:21.570Z,5.50
2018-04-26T23:10:55.163Z,5.40
2018-04-26T23:13:30.288Z,5.30
2018-04-26T23:16:04.008Z,5.30
2018-04-26T23:18:37.904Z,5.30
2018-04-26T23:21:11.899Z,5.50
2018-04-26T23:23:47.155Z,5.30
2018-04-26T23:26:22.076Z,5.30
2018-04-26T23:28:56.086Z,5.20
2018-04-26T23:31:31.216Z,5.10
2018-04-26T23:34:05.031Z,5.10
2018-04-26T23:36:40.387Z,5.10
2018-04-26T23:39:14.988Z,5.10
2018-04-26T23:41:51.044Z,5.10
2018-04-26T23:44:24.850Z,5.00
2018-04-26T23:47:01.530Z,5.10
2018-04-26T23:49:35.332Z,5.10
2018-04-26T23:52:10.359Z,5.00
2018-04-26T23:54:45.272Z,5.00
2018-04-26T23:57:19.723Z,5.00
2018-04-26T23:59:53.721Z,5.00
